Akogare — JPDL — position and weather

sailwx.info

Track history (hours):
 
Tides and Currents Weather Stations Pressure Air Temp Water Temp Dewpoint Dewpoint Depression Visibility Wind Speed Wind Dir Waves Ship Positions

Akogare (Japan)

Ship's website: http://www.akogare.or.jp/eng/top.html

Last reported at 2017-Aug-22 22:30 UTC. Time now 2017-Aug-22 22:33 UTC.
Position N 34°38' E 135°18'.

Length 52 m; draft 4.5 m.

Type: Sailing vessel. MMSI: 431005001.

Date/timePositionNaut miles runAvg speedWind from/ knotsBaromVisibWave heightAir tempDewpointWater temp
2017-Aug-22 22:30N 34°38' E 135°18'3 6.5
2017-Aug-22 22:00N 34°38' E 135°14'2 4.8
2017-Aug-22 21:30N 34°39' E 135°11'2 4.2
2017-Aug-22 20:59N 34°41' E 135°11'0 0.1
2017-Aug-22 20:29N 34°41' E 135°11'0 0.0
2017-Aug-22 19:59N 34°41' E 135°11'0 0.0
2017-Aug-22 19:29N 34°41' E 135°11'0 0.0
2017-Aug-22 18:59N 34°41' E 135°11'0 0.0
2017-Aug-22 18:29N 34°41' E 135°11'0 0.0
2017-Aug-22 17:53N 34°41' E 135°11'0 0.0
2017-Aug-22 17:29N 34°41' E 135°11'0 0.0
2017-Aug-22 16:59N 34°41' E 135°11'0 0.0
2017-Aug-22 16:29N 34°41' E 135°11'0 0.0
2017-Aug-22 15:59N 34°41' E 135°11'0 0.0
2017-Aug-22 15:29N 34°41' E 135°11'0 0.0
2017-Aug-22 14:53N 34°41' E 135°11'0 0.0
2017-Aug-22 14:29N 34°41' E 135°11'0 0.0
2017-Aug-22 13:59N 34°41' E 135°11'0 0.0
2017-Aug-22 13:19N 34°41' E 135°11'0 0.0
2017-Aug-22 12:55N 34°41' E 135°11'0 0.0
2017-Aug-22 12:31N 34°41' E 135°11'0 0.0
2017-Aug-22 12:00N 34°41' E 135°11'0 0.0
2017-Aug-22 11:18N 34°41' E 135°11'0 0.0
2017-Aug-22 11:00N 34°41' E 135°11'0 0.0
2017-Aug-22 10:31N 34°41' E 135°11'0 0.0
2017-Aug-22 10:00N 34°41' E 135°11'0 0.0
2017-Aug-22 09:24N 34°41' E 135°11'0 0.0
2017-Aug-22 08:49N 34°41' E 135°11'0 0.0
2017-Aug-22 08:25N 34°41' E 135°11'0 0.0
2017-Aug-22 07:54N 34°41' E 135°11'0 0.0
2017-Aug-22 07:31N 34°41' E 135°11'0 0.0
2017-Aug-22 06:54N 34°41' E 135°11'0 0.0
2017-Aug-22 06:31N 34°41' E 135°11'0 0.0
2017-Aug-22 06:01N 34°41' E 135°11'0 0.0
2017-Aug-22 05:31N 34°41' E 135°11'0 0.0
2017-Aug-22 05:01N 34°41' E 135°11'0 0.0
2017-Aug-22 04:24N 34°41' E 135°11'0 0.0
2017-Aug-22 04:01N 34°41' E 135°11'0 0.0
2017-Aug-22 03:30N 34°41' E 135°11'0 0.0
2017-Aug-22 03:01N 34°41' E 135°11'0 0.0
2017-Aug-22 02:31N 34°41' E 135°11'0 0.0
2017-Aug-22 02:01N 34°41' E 135°11'0 0.0
2017-Aug-22 01:25N 34°41' E 135°11'0 0.0
2017-Aug-22 01:01N 34°41' E 135°11'0 0.0
2017-Aug-22 00:24N 34°41' E 135°11'0 0.0
2017-Aug-21 23:48N 34°41' E 135°11'0 0.0
2017-Aug-21 23:31N 34°41' E 135°11'0 0.0
2017-Aug-21 22:49N 34°41' E 135°11'0 0.0
2017-Aug-21 22:24N 34°41' E 135°11'0 0.0
2017-Aug-21 22:01N 34°41' E 135°11'0 0.0
2017-Aug-21 21:21N 34°41' E 135°11'0 0.0
2017-Aug-21 20:57N 34°41' E 135°11'0 0.0
2017-Aug-21 20:27N 34°41' E 135°11'0 0.0
2017-Aug-21 19:57N 34°41' E 135°11'0 0.0
2017-Aug-21 19:27N 34°41' E 135°11'0 0.0
2017-Aug-21 18:57N 34°41' E 135°11'0 0.0
2017-Aug-21 18:15N 34°41' E 135°11'0 0.0
2017-Aug-21 17:57N 34°41' E 135°11'0 0.0
2017-Aug-21 17:21N 34°41' E 135°11'0 0.0
2017-Aug-21 16:57N 34°41' E 135°11'0 0.0
2017-Aug-21 16:27N 34°41' E 135°11'0 0.0
2017-Aug-21 15:57N 34°41' E 135°11'0 0.0
2017-Aug-21 15:27N 34°41' E 135°11'0 0.0
2017-Aug-21 14:45N 34°41' E 135°11'0 0.0
2017-Aug-21 14:21N 34°41' E 135°11'0 0.0
2017-Aug-21 13:57N 34°41' E 135°11'0 0.0
2017-Aug-21 13:27N 34°41' E 135°11'0 0.0
2017-Aug-21 12:57N 34°41' E 135°11'0 0.0
2017-Aug-21 12:21N 34°41' E 135°11'0 0.0
2017-Aug-21 11:57N 34°41' E 135°11'0 1.1
2017-Aug-21 11:30N 34°41' E 135°11'3 5.6
2017-Aug-21 11:00N 34°38' E 135°11'3 6.9
2017-Aug-21 10:30N 34°34' E 135°10'3 6.6
2017-Aug-21 10:00N 34°31' E 135°08'4 7.1
2017-Aug-21 09:28N 34°28' E 135°07'4 8.7
2017-Aug-21 08:59N 34°24' E 135°06'5 8.7
2017-Aug-21 08:24N 34°19' E 135°04'3 8.6
2017-Aug-21 08:00N 34°15' E 135°03'4 7.2
2017-Aug-21 07:30N 34°13' E 135°07'2 2.3
2017-Aug-21 06:50N 34°13' E 135°09'0 0.0
2017-Aug-21 06:26N 34°13' E 135°09'0 0.0
2017-Aug-21 05:56N 34°13' E 135°09'0 0.0
2017-Aug-21 05:26N 34°13' E 135°09'0 0.0
2017-Aug-21 04:56N 34°13' E 135°09'0 0.0
2017-Aug-21 04:14N 34°13' E 135°09'0 0.0
2017-Aug-21 03:56N 34°13' E 135°09'0 0.8
2017-Aug-21 03:30N 34°13' E 135°08'2 3.6
2017-Aug-21 03:00N 34°13' E 135°06'2 3.4
2017-Aug-21 02:30N 34°12' E 135°04'1 1.9
2017-Aug-21 02:00N 34°11' E 135°04'1 2.1
2017-Aug-21 01:30N 34°10' E 135°04'  
2017-Aug-18 14:34N 34°05' E 135°03'1 6.3
2017-Aug-18 14:24N 34°06' E 135°03'5 5.6
2017-Aug-18 13:30N 34°10' E 135°07'2 4.9
2017-Aug-18 13:00N 34°10' E 135°10'0 0.0
2017-Aug-18 12:28N 34°10' E 135°10'0 0.0
2017-Aug-18 11:58N 34°10' E 135°10'0 0.0
2017-Aug-18 11:28N 34°10' E 135°10'0 0.0
2017-Aug-18 10:55N 34°10' E 135°10'0 0.0
2017-Aug-18 10:28N 34°10' E 135°10'0 0.0
2017-Aug-18 09:55N 34°10' E 135°10'0 0.0
2017-Aug-18 09:28N 34°10' E 135°10'0 0.0
2017-Aug-18 08:55N 34°10' E 135°10'0 0.0
2017-Aug-18 08:28N 34°10' E 135°10'0 0.0
2017-Aug-18 07:58N 34°10' E 135°10'0 0.0
2017-Aug-18 07:28N 34°10' E 135°10'0 0.0
2017-Aug-18 06:55N 34°10' E 135°10'0 0.0
2017-Aug-18 06:25N 34°10' E 135°10'1 1.2
2017-Aug-18 06:00N 34°10' E 135°10'3 6.1
2017-Aug-18 05:30N 34°12' E 135°07'1 2.6
2017-Aug-18 05:00N 34°13' E 135°09'0 0.0
2017-Aug-18 04:30N 34°13' E 135°09'0 0.0
2017-Aug-18 04:00N 34°13' E 135°09'0 0.0
2017-Aug-18 03:30N 34°13' E 135°09'0 0.0
2017-Aug-18 03:00N 34°13' E 135°09'0 0.0
2017-Aug-18 02:30N 34°13' E 135°09'0 0.0
2017-Aug-18 01:54N 34°13' E 135°09'0 0.0
2017-Aug-18 01:30N 34°13' E 135°09'0 0.0
2017-Aug-18 01:00N 34°13' E 135°09'0 0.0
2017-Aug-18 00:30N 34°13' E 135°09'0 0.0
2017-Aug-18 00:00N 34°13' E 135°09'0 0.0
2017-Aug-17 23:30N 34°13' E 135°09'0 0.0
2017-Aug-17 23:00N 34°13' E 135°09'0 0.0
2017-Aug-17 22:30N 34°13' E 135°09'0 0.0
2017-Aug-17 21:54N 34°13' E 135°09'0 0.0
2017-Aug-17 21:24N 34°13' E 135°09'0 0.0
2017-Aug-17 21:00N 34°13' E 135°09'0 0.0
2017-Aug-17 20:30N 34°13' E 135°09'0 0.0
2017-Aug-17 20:00N 34°13' E 135°09'0 0.0
2017-Aug-17 19:30N 34°13' E 135°09'0 0.0
2017-Aug-17 18:57N 34°13' E 135°09'0 0.0
2017-Aug-17 18:30N 34°13' E 135°09'0 0.0
2017-Aug-17 18:00N 34°13' E 135°09'0 0.0
2017-Aug-17 17:30N 34°13' E 135°09'0 0.0
2017-Aug-17 17:00N 34°13' E 135°09'0 0.0
2017-Aug-17 16:30N 34°13' E 135°09'0 0.0
2017-Aug-17 16:00N 34°13' E 135°09'0 0.0
2017-Aug-17 15:30N 34°13' E 135°09'0 0.0
2017-Aug-17 15:00N 34°13' E 135°09'0 0.0
2017-Aug-17 14:30N 34°13' E 135°09'0 0.0
2017-Aug-17 14:00N 34°13' E 135°09'0 0.0
2017-Aug-17 13:30N 34°13' E 135°09'0 0.0
2017-Aug-17 13:00N 34°13' E 135°09'0 0.0
2017-Aug-17 12:30N 34°13' E 135°09'0 0.0
2017-Aug-17 12:00N 34°13' E 135°09'0 0.0
2017-Aug-17 11:30N 34°13' E 135°09'0 0.0
2017-Aug-17 11:00N 34°13' E 135°09'0 0.0
2017-Aug-17 10:30N 34°13' E 135°09'0 0.0
2017-Aug-17 10:00N 34°13' E 135°09'0 0.0
2017-Aug-17 09:30N 34°13' E 135°09'0 0.0
2017-Aug-17 09:00N 34°13' E 135°09'0 0.0
2017-Aug-17 08:30N 34°13' E 135°09'0 0.0
2017-Aug-17 07:48N 34°13' E 135°09'0 0.0
2017-Aug-17 07:27N 34°13' E 135°09'0 0.6
2017-Aug-17 07:00N 34°13' E 135°08'2 4.9
2017-Aug-17 06:31N 34°12' E 135°05'2 4.7
2017-Aug-17 06:00N 34°10' E 135°06'0 0.6
2017-Aug-17 05:30N 34°10' E 135°06'1 2.5
2017-Aug-17 05:00N 34°12' E 135°06'2 3.1
2017-Aug-17 04:31N 34°13' E 135°07'1 2.2
2017-Aug-17 03:52N 34°13' E 135°09'0 0.0
2017-Aug-17 03:28N 34°13' E 135°09'0 0.0
2017-Aug-17 02:40N 34°13' E 135°09'0 0.0
2017-Aug-17 02:25N 34°13' E 135°09'0 0.0
2017-Aug-17 01:52N 34°13' E 135°09'0 0.0
2017-Aug-17 01:28N 34°13' E 135°09'0 0.0
2017-Aug-17 00:49N 34°13' E 135°09'0 0.0
2017-Aug-17 00:22N 34°13' E 135°09'0 0.0
2017-Aug-16 23:58N 34°13' E 135°09'0 0.3
2017-Aug-16 23:31N 34°13' E 135°08'1 2.8
2017-Aug-16 23:01N 34°13' E 135°07'1 2.0
2017-Aug-16 22:31N 34°12' E 135°07'0 0.0
2017-Aug-16 21:58N 34°12' E 135°07'0 0.0
2017-Aug-16 21:28N 34°12' E 135°07'0 0.0
2017-Aug-16 20:58N 34°12' E 135°07'0 0.0
2017-Aug-16 20:28N 34°12' E 135°07'0 0.0
2017-Aug-16 19:55N 34°12' E 135°07'0 0.0
2017-Aug-16 19:28N 34°12' E 135°07'0 0.0
2017-Aug-16 18:58N 34°12' E 135°07'0 0.0
2017-Aug-16 18:28N 34°12' E 135°07'0 0.0
2017-Aug-16 17:58N 34°12' E 135°07'0 0.0
2017-Aug-16 17:28N 34°12' E 135°07'0 0.0
2017-Aug-16 16:52N 34°12' E 135°07'0 0.0
2017-Aug-16 16:28N 34°12' E 135°07'0 0.0
2017-Aug-16 15:58N 34°12' E 135°07'0 0.0
2017-Aug-16 15:28N 34°12' E 135°07'0 0.0
2017-Aug-16 14:58N 34°12' E 135°07'0 0.0
2017-Aug-16 14:28N 34°12' E 135°07'0 0.1
2017-Aug-16 13:58N 34°12' E 135°08'0 0.1
2017-Aug-16 13:28N 34°12' E 135°07'0 0.1
2017-Aug-16 12:58N 34°12' E 135°08'0 0.0
2017-Aug-16 12:25N 34°12' E 135°08'0 0.0
2017-Aug-16 11:58N 34°12' E 135°08'0 0.1
2017-Aug-16 11:26N 34°12' E 135°07'1 3.0
2017-Aug-16 11:00N 34°12' E 135°06'3 6.5
2017-Aug-16 10:30N 34°14' E 135°02'4 6.1
2017-Aug-16 09:48N 34°16' E 134°58'2 5.5
2017-Aug-16 09:24N 34°19' E 134°58'2 4.6
2017-Aug-16 08:59N 34°21' E 134°58'12 5.9
2017-Aug-16 06:59N 34°31' E 135°05'3 6.3
2017-Aug-16 06:30N 34°34' E 135°07'3 7.0
2017-Aug-16 06:00N 34°36' E 135°09'3 6.1
2017-Aug-16 05:30N 34°39' E 135°11'2 3.7
2017-Aug-16 05:00N 34°41' E 135°11'0 0.0
2017-Aug-16 04:13N 34°41' E 135°11'0 0.0
2017-Aug-16 03:58N 34°41' E 135°11'0 0.0
2017-Aug-16 03:28N 34°41' E 135°11'0 0.0
2017-Aug-16 02:58N 34°41' E 135°11'0 0.0
2017-Aug-16 02:28N 34°41' E 135°11'0 0.0
2017-Aug-16 01:58N 34°41' E 135°11'0 0.0
2017-Aug-16 01:28N 34°41' E 135°11'0 0.0
2017-Aug-16 00:58N 34°41' E 135°11'0 0.0
2017-Aug-16 00:28N 34°41' E 135°11'0 0.0
2017-Aug-15 23:58N 34°41' E 135°11'0 0.0
2017-Aug-15 23:22N 34°41' E 135°11'0 0.0
2017-Aug-15 22:46N 34°41' E 135°11'0 0.0
2017-Aug-15 22:28N 34°41' E 135°11'0 0.0
2017-Aug-15 21:52N 34°41' E 135°11'0 0.0
2017-Aug-15 21:28N 34°41' E 135°11'0 0.0
2017-Aug-15 20:52N 34°41' E 135°11'0 0.0
2017-Aug-15 20:28N 34°41' E 135°11'0 0.0
2017-Aug-15 19:58N 34°41' E 135°11'0 0.0
2017-Aug-15 19:28N 34°41' E 135°11'0 0.0
2017-Aug-15 18:58N 34°41' E 135°11'0 0.0
2017-Aug-15 18:28N 34°41' E 135°11'0 0.0
2017-Aug-15 17:58N 34°41' E 135°11'0 0.0
2017-Aug-15 17:28N 34°41' E 135°11'0 0.0
2017-Aug-15 16:58N 34°41' E 135°11'0 0.0
2017-Aug-15 16:28N 34°41' E 135°11'0 0.0
2017-Aug-15 15:52N 34°41' E 135°11'0 0.0
2017-Aug-15 15:22N 34°41' E 135°11'0 0.0
2017-Aug-15 14:58N 34°41' E 135°11'0 0.0
2017-Aug-15 14:22N 34°41' E 135°11'0 0.0
2017-Aug-15 13:58N 34°41' E 135°11'0 0.0
2017-Aug-15 13:28N 34°41' E 135°11'0 0.0
2017-Aug-15 12:58N 34°41' E 135°11'0 0.0
2017-Aug-15 12:28N 34°41' E 135°11'0 0.0
2017-Aug-15 11:58N 34°41' E 135°11'0 0.0
2017-Aug-15 11:28N 34°41' E 135°11'0 0.0
2017-Aug-15 10:58N 34°41' E 135°11'0 0.0
2017-Aug-15 10:28N 34°41' E 135°11'0 0.0
2017-Aug-15 09:58N 34°41' E 135°11'0 0.0
2017-Aug-15 09:28N 34°41' E 135°11'0 0.0
2017-Aug-15 08:58N 34°41' E 135°11'0 0.0
2017-Aug-15 08:28N 34°41' E 135°11'0 0.0
2017-Aug-15 07:40N 34°41' E 135°11'0 0.0
2017-Aug-15 07:22N 34°41' E 135°11'0 0.0
2017-Aug-15 06:52N 34°41' E 135°11'0 0.0
2017-Aug-15 06:28N 34°41' E 135°11'0 0.0
2017-Aug-15 05:58N 34°41' E 135°11'0 0.0
2017-Aug-15 05:28N 34°41' E 135°11'0 0.0
2017-Aug-15 04:58N 34°41' E 135°11'0 0.0
2017-Aug-15 04:28N 34°41' E 135°11'0 0.0
2017-Aug-15 03:58N 34°41' E 135°11'0 0.0
2017-Aug-15 03:22N 34°41' E 135°11'0 0.0
2017-Aug-15 02:58N 34°41' E 135°11'0 0.0
2017-Aug-15 02:27N 34°41' E 135°11'0 0.0
2017-Aug-15 01:57N 34°41' E 135°11'0 0.0
2017-Aug-15 01:21N 34°41' E 135°11'0 0.0
2017-Aug-15 00:57N 34°41' E 135°11'0 0.0
2017-Aug-15 00:21N 34°41' E 135°11'0 0.0
2017-Aug-14 23:57N 34°41' E 135°11'0 0.0
2017-Aug-14 23:27N 34°41' E 135°11'0 0.0
2017-Aug-14 22:57N 34°41' E 135°11'0 0.0
2017-Aug-14 22:21N 34°41' E 135°11'0 0.0
2017-Aug-14 21:57N 34°41' E 135°11'0 0.0
2017-Aug-14 21:27N 34°41' E 135°11'0 0.0
2017-Aug-14 20:57N 34°41' E 135°11'0 0.0
2017-Aug-14 20:27N 34°41' E 135°11'0 0.0
2017-Aug-14 19:57N 34°41' E 135°11'0 0.0
2017-Aug-14 19:27N 34°41' E 135°11'0 0.0
2017-Aug-14 18:57N 34°41' E 135°11'0 0.0
2017-Aug-14 18:21N 34°41' E 135°11'0 0.0
2017-Aug-14 17:57N 34°41' E 135°11'0 0.0
2017-Aug-14 17:27N 34°41' E 135°11'0 0.0
2017-Aug-14 16:57N 34°41' E 135°11'0 0.0
2017-Aug-14 16:27N 34°41' E 135°11'0 0.0
2017-Aug-14 15:57N 34°41' E 135°11'0 0.0
2017-Aug-14 15:21N 34°41' E 135°11'0 0.0
2017-Aug-14 14:57N 34°41' E 135°11'0 0.0
2017-Aug-14 14:27N 34°41' E 135°11'0 0.0
2017-Aug-14 13:57N 34°41' E 135°11'0 0.0
2017-Aug-14 13:27N 34°41' E 135°11'0 0.0
2017-Aug-14 12:57N 34°41' E 135°11'0 0.0
2017-Aug-14 12:27N 34°41' E 135°11'0 0.0
2017-Aug-14 11:51N 34°41' E 135°11'0 0.0
2017-Aug-14 11:27N 34°41' E 135°11'0 0.0
2017-Aug-14 10:57N 34°41' E 135°11'0 0.0
2017-Aug-14 10:27N 34°41' E 135°11'0 0.0
2017-Aug-14 09:57N 34°41' E 135°11'0 0.0
2017-Aug-14 09:27N 34°41' E 135°11'0 0.0
2017-Aug-14 08:57N 34°41' E 135°11'0 0.0
2017-Aug-14 08:27N 34°41' E 135°11'0 0.0
2017-Aug-14 07:57N 34°41' E 135°11'0 0.0
2017-Aug-14 07:27N 34°41' E 135°11'0 0.0
2017-Aug-14 06:57N 34°41' E 135°11'0 0.2
2017-Aug-14 06:30N 34°41' E 135°11'1 2.5
2017-Aug-14 06:00N 34°40' E 135°12'1 2.6
2017-Aug-14 05:30N 34°38' E 135°11'2 4.2
2017-Aug-14 05:00N 34°37' E 135°09'2 3.1
2017-Aug-14 04:30N 34°37' E 135°07'1 1.4
2017-Aug-14 04:00N 34°37' E 135°06'0 0.7
2017-Aug-14 03:30N 34°37' E 135°06'1 1.4
2017-Aug-14 03:00N 34°37' E 135°07'1 1.2
2017-Aug-14 02:29N 34°37' E 135°06'0 0.7
2017-Aug-14 02:00N 34°38' E 135°07'2 3.9
2017-Aug-14 01:30N 34°38' E 135°09'2 4.9
2017-Aug-14 01:00N 34°40' E 135°11'1 2.3
2017-Aug-14 00:26N 34°41' E 135°11'0 0.0
2017-Aug-14 00:00N 34°41' E 135°11'0 0.0
2017-Aug-13 23:18N 34°41' E 135°11'0 0.0
2017-Aug-13 22:48N 34°41' E 135°11'0 0.0
2017-Aug-13 22:30N 34°41' E 135°11'0 0.0
2017-Aug-13 21:54N 34°41' E 135°11'0 0.0
2017-Aug-13 21:30N 34°41' E 135°11'0 0.0
2017-Aug-13 20:54N 34°41' E 135°11'0 0.0
2017-Aug-13 20:30N 34°41' E 135°11'0 0.0
2017-Aug-13 19:54N 34°41' E 135°11'0 0.0
2017-Aug-13 19:30N 34°41' E 135°11'0 0.0
2017-Aug-13 18:54N 34°41' E 135°11'0 0.0
2017-Aug-13 18:30N 34°41' E 135°11'0 0.0
2017-Aug-13 18:00N 34°41' E 135°11'0 0.0
2017-Aug-13 17:30N 34°41' E 135°11'0 0.0
2017-Aug-13 17:00N 34°41' E 135°11'0 0.0
2017-Aug-13 16:30N 34°41' E 135°11'0 0.0
2017-Aug-13 16:00N 34°41' E 135°11'0 0.0
2017-Aug-13 15:30N 34°41' E 135°11'0 0.0
2017-Aug-13 15:00N 34°41' E 135°11'0 0.0
2017-Aug-13 14:24N 34°41' E 135°11'0 0.0
2017-Aug-13 14:00N 34°41' E 135°11'0 0.0
2017-Aug-13 13:30N 34°41' E 135°11'0 0.0
2017-Aug-13 13:00N 34°41' E 135°11'0 0.0
2017-Aug-13 12:30N 34°41' E 135°11'0 0.0
2017-Aug-13 12:00N 34°41' E 135°11'0 0.0
2017-Aug-13 11:26N 34°41' E 135°11'1 2.3
2017-Aug-13 11:00N 34°40' E 135°11'2 4.3
2017-Aug-13 10:31N 34°38' E 135°11'3 5.1
2017-Aug-13 10:01N 34°37' E 135°08'2 3.1
2017-Aug-13 09:30N 34°37' E 135°09'2 3.5
2017-Aug-13 09:00N 34°39' E 135°11'2 4.2
2017-Aug-13 08:27N 34°41' E 135°11'0 0.0
2017-Aug-13 07:57N 34°41' E 135°11'0 0.0
2017-Aug-13 07:27N 34°41' E 135°11'0 0.0
2017-Aug-13 06:57N 34°41' E 135°11'0 0.0
2017-Aug-13 06:30N 34°41' E 135°11'1 2.4
2017-Aug-13 06:00N 34°40' E 135°11'2 4.0
2017-Aug-13 05:30N 34°38' E 135°11'2 3.0
2017-Aug-13 05:00N 34°39' E 135°11'2 2.4
2017-Aug-13 04:21N 34°41' E 135°11'0 0.0
2017-Aug-13 03:57N 34°41' E 135°11'0 0.0
2017-Aug-13 03:27N 34°41' E 135°11'0 0.0
2017-Aug-13 02:51N 34°41' E 135°11'0 0.0
2017-Aug-13 02:30N 34°41' E 135°11'1 2.0
2017-Aug-13 02:00N 34°40' E 135°11'2 4.1
2017-Aug-13 01:30N 34°38' E 135°11'2 3.8
2017-Aug-13 01:00N 34°40' E 135°11'1 2.0
2017-Aug-13 00:27N 34°41' E 135°11'0 0.0
2017-Aug-12 23:57N 34°41' E 135°11'0 0.0
2017-Aug-12 23:01N 34°41' E 135°11'0 0.0
2017-Aug-12 22:49N 34°41' E 135°11'  
Track history (hours):
 
Tides and Currents Weather Stations Pressure Air Temp Water Temp Dewpoint Dewpoint Depression Visibility Wind Speed Wind Dir Waves Ship Positions

Akogare (Japan)

Ship's website: http://www.akogare.or.jp/eng/top.html

Last reported at 2017-Aug-22 22:30 UTC. Time now 2017-Aug-22 22:33 UTC.
Position N 34°38' E 135°18'.

Length 52 m; draft 4.5 m.

Type: Sailing vessel. MMSI: 431005001.

Date/timePositionNaut miles runAvg speedWind from/ knotsBaromVisibWave heightAir tempDewpointWater temp
2017-Aug-22 22:30N 34°38' E 135°18'3 6.5
2017-Aug-22 22:00N 34°38' E 135°14'2 4.8
2017-Aug-22 21:30N 34°39' E 135°11'2 4.2
2017-Aug-22 20:59N 34°41' E 135°11'0 0.1
2017-Aug-22 20:29N 34°41' E 135°11'0 0.0
2017-Aug-22 19:59N 34°41' E 135°11'0 0.0
2017-Aug-22 19:29N 34°41' E 135°11'0 0.0
2017-Aug-22 18:59N 34°41' E 135°11'0 0.0
2017-Aug-22 18:29N 34°41' E 135°11'0 0.0
2017-Aug-22 17:53N 34°41' E 135°11'0 0.0
2017-Aug-22 17:29N 34°41' E 135°11'0 0.0
2017-Aug-22 16:59N 34°41' E 135°11'0 0.0
2017-Aug-22 16:29N 34°41' E 135°11'0 0.0
2017-Aug-22 15:59N 34°41' E 135°11'0 0.0
2017-Aug-22 15:29N 34°41' E 135°11'0 0.0
2017-Aug-22 14:53N 34°41' E 135°11'0 0.0
2017-Aug-22 14:29N 34°41' E 135°11'0 0.0
2017-Aug-22 13:59N 34°41' E 135°11'0 0.0
2017-Aug-22 13:19N 34°41' E 135°11'0 0.0
2017-Aug-22 12:55N 34°41' E 135°11'0 0.0
2017-Aug-22 12:31N 34°41' E 135°11'0 0.0
2017-Aug-22 12:00N 34°41' E 135°11'0 0.0
2017-Aug-22 11:18N 34°41' E 135°11'0 0.0
2017-Aug-22 11:00N 34°41' E 135°11'0 0.0
2017-Aug-22 10:31N 34°41' E 135°11'0 0.0
2017-Aug-22 10:00N 34°41' E 135°11'0 0.0
2017-Aug-22 09:24N 34°41' E 135°11'0 0.0
2017-Aug-22 08:49N 34°41' E 135°11'0 0.0
2017-Aug-22 08:25N 34°41' E 135°11'0 0.0
2017-Aug-22 07:54N 34°41' E 135°11'0 0.0
2017-Aug-22 07:31N 34°41' E 135°11'0 0.0
2017-Aug-22 06:54N 34°41' E 135°11'0 0.0
2017-Aug-22 06:31N 34°41' E 135°11'0 0.0
2017-Aug-22 06:01N 34°41' E 135°11'0 0.0
2017-Aug-22 05:31N 34°41' E 135°11'0 0.0
2017-Aug-22 05:01N 34°41' E 135°11'0 0.0
2017-Aug-22 04:24N 34°41' E 135°11'0 0.0
2017-Aug-22 04:01N 34°41' E 135°11'0 0.0
2017-Aug-22 03:30N 34°41' E 135°11'0 0.0
2017-Aug-22 03:01N 34°41' E 135°11'0 0.0
2017-Aug-22 02:31N 34°41' E 135°11'0 0.0
2017-Aug-22 02:01N 34°41' E 135°11'0 0.0
2017-Aug-22 01:25N 34°41' E 135°11'0 0.0
2017-Aug-22 01:01N 34°41' E 135°11'0 0.0
2017-Aug-22 00:24N 34°41' E 135°11'0 0.0
2017-Aug-21 23:48N 34°41' E 135°11'0 0.0
2017-Aug-21 23:31N 34°41' E 135°11'0 0.0
2017-Aug-21 22:49N 34°41' E 135°11'0 0.0
2017-Aug-21 22:24N 34°41' E 135°11'0 0.0
2017-Aug-21 22:01N 34°41' E 135°11'0 0.0
2017-Aug-21 21:21N 34°41' E 135°11'0 0.0
2017-Aug-21 20:57N 34°41' E 135°11'0 0.0
2017-Aug-21 20:27N 34°41' E 135°11'0 0.0
2017-Aug-21 19:57N 34°41' E 135°11'0 0.0
2017-Aug-21 19:27N 34°41' E 135°11'0 0.0
2017-Aug-21 18:57N 34°41' E 135°11'0 0.0
2017-Aug-21 18:15N 34°41' E 135°11'0 0.0
2017-Aug-21 17:57N 34°41' E 135°11'0 0.0
2017-Aug-21 17:21N 34°41' E 135°11'0 0.0
2017-Aug-21 16:57N 34°41' E 135°11'0 0.0
2017-Aug-21 16:27N 34°41' E 135°11'0 0.0
2017-Aug-21 15:57N 34°41' E 135°11'0 0.0
2017-Aug-21 15:27N 34°41' E 135°11'0 0.0
2017-Aug-21 14:45N 34°41' E 135°11'0 0.0
2017-Aug-21 14:21N 34°41' E 135°11'0 0.0
2017-Aug-21 13:57N 34°41' E 135°11'0 0.0
2017-Aug-21 13:27N 34°41' E 135°11'0 0.0
2017-Aug-21 12:57N 34°41' E 135°11'0 0.0
2017-Aug-21 12:21N 34°41' E 135°11'0 0.0
2017-Aug-21 11:57N 34°41' E 135°11'0 1.1
2017-Aug-21 11:30N 34°41' E 135°11'3 5.6
2017-Aug-21 11:00N 34°38' E 135°11'3 6.9
2017-Aug-21 10:30N 34°34' E 135°10'3 6.6
2017-Aug-21 10:00N 34°31' E 135°08'4 7.1
2017-Aug-21 09:28N 34°28' E 135°07'4 8.7
2017-Aug-21 08:59N 34°24' E 135°06'5 8.7
2017-Aug-21 08:24N 34°19' E 135°04'3 8.6
2017-Aug-21 08:00N 34°15' E 135°03'4 7.2
2017-Aug-21 07:30N 34°13' E 135°07'2 2.3
2017-Aug-21 06:50N 34°13' E 135°09'0 0.0
2017-Aug-21 06:26N 34°13' E 135°09'0 0.0
2017-Aug-21 05:56N 34°13' E 135°09'0 0.0
2017-Aug-21 05:26N 34°13' E 135°09'0 0.0
2017-Aug-21 04:56N 34°13' E 135°09'0 0.0
2017-Aug-21 04:14N 34°13' E 135°09'0 0.0
2017-Aug-21 03:56N 34°13' E 135°09'0 0.8
2017-Aug-21 03:30N 34°13' E 135°08'2 3.6
2017-Aug-21 03:00N 34°13' E 135°06'2 3.4
2017-Aug-21 02:30N 34°12' E 135°04'1 1.9
2017-Aug-21 02:00N 34°11' E 135°04'1 2.1
2017-Aug-21 01:30N 34°10' E 135°04'  
2017-Aug-18 14:34N 34°05' E 135°03'1 6.3
2017-Aug-18 14:24N 34°06' E 135°03'5 5.6
2017-Aug-18 13:30N 34°10' E 135°07'2 4.9
2017-Aug-18 13:00N 34°10' E 135°10'0 0.0
2017-Aug-18 12:28N 34°10' E 135°10'0 0.0
2017-Aug-18 11:58N 34°10' E 135°10'0 0.0
2017-Aug-18 11:28N 34°10' E 135°10'0 0.0
2017-Aug-18 10:55N 34°10' E 135°10'0 0.0
2017-Aug-18 10:28N 34°10' E 135°10'0 0.0
2017-Aug-18 09:55N 34°10' E 135°10'0 0.0
2017-Aug-18 09:28N 34°10' E 135°10'0 0.0
2017-Aug-18 08:55N 34°10' E 135°10'0 0.0
2017-Aug-18 08:28N 34°10' E 135°10'0 0.0
2017-Aug-18 07:58N 34°10' E 135°10'0 0.0
2017-Aug-18 07:28N 34°10' E 135°10'0 0.0
2017-Aug-18 06:55N 34°10' E 135°10'0 0.0
2017-Aug-18 06:25N 34°10' E 135°10'1 1.2
2017-Aug-18 06:00N 34°10' E 135°10'3 6.1
2017-Aug-18 05:30N 34°12' E 135°07'1 2.6
2017-Aug-18 05:00N 34°13' E 135°09'0 0.0
2017-Aug-18 04:30N 34°13' E 135°09'0 0.0
2017-Aug-18 04:00N 34°13' E 135°09'0 0.0
2017-Aug-18 03:30N 34°13' E 135°09'0 0.0
2017-Aug-18 03:00N 34°13' E 135°09'0 0.0
2017-Aug-18 02:30N 34°13' E 135°09'0 0.0
2017-Aug-18 01:54N 34°13' E 135°09'0 0.0
2017-Aug-18 01:30N 34°13' E 135°09'0 0.0
2017-Aug-18 01:00N 34°13' E 135°09'0 0.0
2017-Aug-18 00:30N 34°13' E 135°09'0 0.0
2017-Aug-18 00:00N 34°13' E 135°09'0 0.0
2017-Aug-17 23:30N 34°13' E 135°09'0 0.0
2017-Aug-17 23:00N 34°13' E 135°09'0 0.0
2017-Aug-17 22:30N 34°13' E 135°09'0 0.0
2017-Aug-17 21:54N 34°13' E 135°09'0 0.0
2017-Aug-17 21:24N 34°13' E 135°09'0 0.0
2017-Aug-17 21:00N 34°13' E 135°09'0 0.0
2017-Aug-17 20:30N 34°13' E 135°09'0 0.0
2017-Aug-17 20:00N 34°13' E 135°09'0 0.0
2017-Aug-17 19:30N 34°13' E 135°09'0 0.0
2017-Aug-17 18:57N 34°13' E 135°09'0 0.0
2017-Aug-17 18:30N 34°13' E 135°09'0 0.0
2017-Aug-17 18:00N 34°13' E 135°09'0 0.0
2017-Aug-17 17:30N 34°13' E 135°09'0 0.0
2017-Aug-17 17:00N 34°13' E 135°09'0 0.0
2017-Aug-17 16:30N 34°13' E 135°09'0 0.0
2017-Aug-17 16:00N 34°13' E 135°09'0 0.0
2017-Aug-17 15:30N 34°13' E 135°09'0 0.0
2017-Aug-17 15:00N 34°13' E 135°09'0 0.0
2017-Aug-17 14:30N 34°13' E 135°09'0 0.0
2017-Aug-17 14:00N 34°13' E 135°09'0 0.0
2017-Aug-17 13:30N 34°13' E 135°09'0 0.0
2017-Aug-17 13:00N 34°13' E 135°09'0 0.0
2017-Aug-17 12:30N 34°13' E 135°09'0 0.0
2017-Aug-17 12:00N 34°13' E 135°09'0 0.0
2017-Aug-17 11:30N 34°13' E 135°09'0 0.0
2017-Aug-17 11:00N 34°13' E 135°09'0 0.0
2017-Aug-17 10:30N 34°13' E 135°09'0 0.0
2017-Aug-17 10:00N 34°13' E 135°09'0 0.0
2017-Aug-17 09:30N 34°13' E 135°09'0 0.0
2017-Aug-17 09:00N 34°13' E 135°09'0 0.0
2017-Aug-17 08:30N 34°13' E 135°09'0 0.0
2017-Aug-17 07:48N 34°13' E 135°09'0 0.0
2017-Aug-17 07:27N 34°13' E 135°09'0 0.6
2017-Aug-17 07:00N 34°13' E 135°08'2 4.9
2017-Aug-17 06:31N 34°12' E 135°05'2 4.7
2017-Aug-17 06:00N 34°10' E 135°06'0 0.6
2017-Aug-17 05:30N 34°10' E 135°06'1 2.5
2017-Aug-17 05:00N 34°12' E 135°06'2 3.1
2017-Aug-17 04:31N 34°13' E 135°07'1 2.2
2017-Aug-17 03:52N 34°13' E 135°09'0 0.0
2017-Aug-17 03:28N 34°13' E 135°09'0 0.0
2017-Aug-17 02:40N 34°13' E 135°09'0 0.0
2017-Aug-17 02:25N 34°13' E 135°09'0 0.0
2017-Aug-17 01:52N 34°13' E 135°09'0 0.0
2017-Aug-17 01:28N 34°13' E 135°09'0 0.0
2017-Aug-17 00:49N 34°13' E 135°09'0 0.0
2017-Aug-17 00:22N 34°13' E 135°09'0 0.0
2017-Aug-16 23:58N 34°13' E 135°09'0 0.3
2017-Aug-16 23:31N 34°13' E 135°08'1 2.8
2017-Aug-16 23:01N 34°13' E 135°07'1 2.0
2017-Aug-16 22:31N 34°12' E 135°07'0 0.0
2017-Aug-16 21:58N 34°12' E 135°07'0 0.0
2017-Aug-16 21:28N 34°12' E 135°07'0 0.0
2017-Aug-16 20:58N 34°12' E 135°07'0 0.0
2017-Aug-16 20:28N 34°12' E 135°07'0 0.0
2017-Aug-16 19:55N 34°12' E 135°07'0 0.0
2017-Aug-16 19:28N 34°12' E 135°07'0 0.0
2017-Aug-16 18:58N 34°12' E 135°07'0 0.0
2017-Aug-16 18:28N 34°12' E 135°07'0 0.0
2017-Aug-16 17:58N 34°12' E 135°07'0 0.0
2017-Aug-16 17:28N 34°12' E 135°07'0 0.0
2017-Aug-16 16:52N 34°12' E 135°07'0 0.0
2017-Aug-16 16:28N 34°12' E 135°07'0 0.0
2017-Aug-16 15:58N 34°12' E 135°07'0 0.0
2017-Aug-16 15:28N 34°12' E 135°07'0 0.0
2017-Aug-16 14:58N 34°12' E 135°07'0 0.0
2017-Aug-16 14:28N 34°12' E 135°07'0 0.1
2017-Aug-16 13:58N 34°12' E 135°08'0 0.1
2017-Aug-16 13:28N 34°12' E 135°07'0 0.1
2017-Aug-16 12:58N 34°12' E 135°08'0 0.0
2017-Aug-16 12:25N 34°12' E 135°08'0 0.0
2017-Aug-16 11:58N 34°12' E 135°08'0 0.1
2017-Aug-16 11:26N 34°12' E 135°07'1 3.0
2017-Aug-16 11:00N 34°12' E 135°06'3 6.5
2017-Aug-16 10:30N 34°14' E 135°02'4 6.1
2017-Aug-16 09:48N 34°16' E 134°58'2 5.5
2017-Aug-16 09:24N 34°19' E 134°58'2 4.6
2017-Aug-16 08:59N 34°21' E 134°58'12 5.9
2017-Aug-16 06:59N 34°31' E 135°05'3 6.3
2017-Aug-16 06:30N 34°34' E 135°07'3 7.0
2017-Aug-16 06:00N 34°36' E 135°09'3 6.1
2017-Aug-16 05:30N 34°39' E 135°11'2 3.7
2017-Aug-16 05:00N 34°41' E 135°11'0 0.0
2017-Aug-16 04:13N 34°41' E 135°11'0 0.0
2017-Aug-16 03:58N 34°41' E 135°11'0 0.0
2017-Aug-16 03:28N 34°41' E 135°11'0 0.0
2017-Aug-16 02:58N 34°41' E 135°11'0 0.0
2017-Aug-16 02:28N 34°41' E 135°11'0 0.0
2017-Aug-16 01:58N 34°41' E 135°11'0 0.0
2017-Aug-16 01:28N 34°41' E 135°11'0 0.0
2017-Aug-16 00:58N 34°41' E 135°11'0 0.0
2017-Aug-16 00:28N 34°41' E 135°11'0 0.0
2017-Aug-15 23:58N 34°41' E 135°11'0 0.0
2017-Aug-15 23:22N 34°41' E 135°11'0 0.0
2017-Aug-15 22:46N 34°41' E 135°11'0 0.0
2017-Aug-15 22:28N 34°41' E 135°11'0 0.0
2017-Aug-15 21:52N 34°41' E 135°11'0 0.0
2017-Aug-15 21:28N 34°41' E 135°11'0 0.0
2017-Aug-15 20:52N 34°41' E 135°11'0 0.0
2017-Aug-15 20:28N 34°41' E 135°11'0 0.0
2017-Aug-15 19:58N 34°41' E 135°11'0 0.0
2017-Aug-15 19:28N 34°41' E 135°11'0 0.0
2017-Aug-15 18:58N 34°41' E 135°11'0 0.0
2017-Aug-15 18:28N 34°41' E 135°11'0 0.0
2017-Aug-15 17:58N 34°41' E 135°11'0 0.0
2017-Aug-15 17:28N 34°41' E 135°11'0 0.0
2017-Aug-15 16:58N 34°41' E 135°11'0 0.0
2017-Aug-15 16:28N 34°41' E 135°11'0 0.0
2017-Aug-15 15:52N 34°41' E 135°11'0 0.0
2017-Aug-15 15:22N 34°41' E 135°11'0 0.0
2017-Aug-15 14:58N 34°41' E 135°11'0 0.0
2017-Aug-15 14:22N 34°41' E 135°11'0 0.0
2017-Aug-15 13:58N 34°41' E 135°11'0 0.0
2017-Aug-15 13:28N 34°41' E 135°11'0 0.0
2017-Aug-15 12:58N 34°41' E 135°11'0 0.0
2017-Aug-15 12:28N 34°41' E 135°11'0 0.0
2017-Aug-15 11:58N 34°41' E 135°11'0 0.0
2017-Aug-15 11:28N 34°41' E 135°11'0 0.0
2017-Aug-15 10:58N 34°41' E 135°11'0 0.0
2017-Aug-15 10:28N 34°41' E 135°11'0 0.0
2017-Aug-15 09:58N 34°41' E 135°11'0 0.0
2017-Aug-15 09:28N 34°41' E 135°11'0 0.0
2017-Aug-15 08:58N 34°41' E 135°11'0 0.0
2017-Aug-15 08:28N 34°41' E 135°11'0 0.0
2017-Aug-15 07:40N 34°41' E 135°11'0 0.0
2017-Aug-15 07:22N 34°41' E 135°11'0 0.0
2017-Aug-15 06:52N 34°41' E 135°11'0 0.0
2017-Aug-15 06:28N 34°41' E 135°11'0 0.0
2017-Aug-15 05:58N 34°41' E 135°11'0 0.0
2017-Aug-15 05:28N 34°41' E 135°11'0 0.0
2017-Aug-15 04:58N 34°41' E 135°11'0 0.0
2017-Aug-15 04:28N 34°41' E 135°11'0 0.0
2017-Aug-15 03:58N 34°41' E 135°11'0 0.0
2017-Aug-15 03:22N 34°41' E 135°11'0 0.0
2017-Aug-15 02:58N 34°41' E 135°11'0 0.0
2017-Aug-15 02:27N 34°41' E 135°11'0 0.0
2017-Aug-15 01:57N 34°41' E 135°11'0 0.0
2017-Aug-15 01:21N 34°41' E 135°11'0 0.0
2017-Aug-15 00:57N 34°41' E 135°11'0 0.0
2017-Aug-15 00:21N 34°41' E 135°11'0 0.0
2017-Aug-14 23:57N 34°41' E 135°11'0 0.0
2017-Aug-14 23:27N 34°41' E 135°11'0 0.0
2017-Aug-14 22:57N 34°41' E 135°11'0 0.0
2017-Aug-14 22:21N 34°41' E 135°11'0 0.0
2017-Aug-14 21:57N 34°41' E 135°11'0 0.0
2017-Aug-14 21:27N 34°41' E 135°11'0 0.0
2017-Aug-14 20:57N 34°41' E 135°11'0 0.0
2017-Aug-14 20:27N 34°41' E 135°11'0 0.0
2017-Aug-14 19:57N 34°41' E 135°11'0 0.0
2017-Aug-14 19:27N 34°41' E 135°11'0 0.0
2017-Aug-14 18:57N 34°41' E 135°11'0 0.0
2017-Aug-14 18:21N 34°41' E 135°11'0 0.0
2017-Aug-14 17:57N 34°41' E 135°11'0 0.0
2017-Aug-14 17:27N 34°41' E 135°11'0 0.0
2017-Aug-14 16:57N 34°41' E 135°11'0 0.0
2017-Aug-14 16:27N 34°41' E 135°11'0 0.0
2017-Aug-14 15:57N 34°41' E 135°11'0 0.0
2017-Aug-14 15:21N 34°41' E 135°11'0 0.0
2017-Aug-14 14:57N 34°41' E 135°11'0 0.0
2017-Aug-14 14:27N 34°41' E 135°11'0 0.0
2017-Aug-14 13:57N 34°41' E 135°11'0 0.0
2017-Aug-14 13:27N 34°41' E 135°11'0 0.0
2017-Aug-14 12:57N 34°41' E 135°11'0 0.0
2017-Aug-14 12:27N 34°41' E 135°11'0 0.0
2017-Aug-14 11:51N 34°41' E 135°11'0 0.0
2017-Aug-14 11:27N 34°41' E 135°11'0 0.0
2017-Aug-14 10:57N 34°41' E 135°11'0 0.0
2017-Aug-14 10:27N 34°41' E 135°11'0 0.0
2017-Aug-14 09:57N 34°41' E 135°11'0 0.0
2017-Aug-14 09:27N 34°41' E 135°11'0 0.0
2017-Aug-14 08:57N 34°41' E 135°11'0 0.0
2017-Aug-14 08:27N 34°41' E 135°11'0 0.0
2017-Aug-14 07:57N 34°41' E 135°11'0 0.0
2017-Aug-14 07:27N 34°41' E 135°11'0 0.0
2017-Aug-14 06:57N 34°41' E 135°11'0 0.2
2017-Aug-14 06:30N 34°41' E 135°11'1 2.5
2017-Aug-14 06:00N 34°40' E 135°12'1 2.6
2017-Aug-14 05:30N 34°38' E 135°11'2 4.2
2017-Aug-14 05:00N 34°37' E 135°09'2 3.1
2017-Aug-14 04:30N 34°37' E 135°07'1 1.4
2017-Aug-14 04:00N 34°37' E 135°06'0 0.7
2017-Aug-14 03:30N 34°37' E 135°06'1 1.4
2017-Aug-14 03:00N 34°37' E 135°07'1 1.2
2017-Aug-14 02:29N 34°37' E 135°06'0 0.7
2017-Aug-14 02:00N 34°38' E 135°07'2 3.9
2017-Aug-14 01:30N 34°38' E 135°09'2 4.9
2017-Aug-14 01:00N 34°40' E 135°11'1 2.3
2017-Aug-14 00:26N 34°41' E 135°11'0 0.0
2017-Aug-14 00:00N 34°41' E 135°11'0 0.0
2017-Aug-13 23:18N 34°41' E 135°11'0 0.0
2017-Aug-13 22:48N 34°41' E 135°11'0 0.0
2017-Aug-13 22:30N 34°41' E 135°11'0 0.0
2017-Aug-13 21:54N 34°41' E 135°11'0 0.0
2017-Aug-13 21:30N 34°41' E 135°11'0 0.0
2017-Aug-13 20:54N 34°41' E 135°11'0 0.0
2017-Aug-13 20:30N 34°41' E 135°11'0 0.0
2017-Aug-13 19:54N 34°41' E 135°11'0 0.0
2017-Aug-13 19:30N 34°41' E 135°11'0 0.0
2017-Aug-13 18:54N 34°41' E 135°11'0 0.0
2017-Aug-13 18:30N 34°41' E 135°11'0 0.0
2017-Aug-13 18:00N 34°41' E 135°11'0 0.0
2017-Aug-13 17:30N 34°41' E 135°11'0 0.0
2017-Aug-13 17:00N 34°41' E 135°11'0 0.0
2017-Aug-13 16:30N 34°41' E 135°11'0 0.0
2017-Aug-13 16:00N 34°41' E 135°11'0 0.0
2017-Aug-13 15:30N 34°41' E 135°11'0 0.0
2017-Aug-13 15:00N 34°41' E 135°11'0 0.0
2017-Aug-13 14:24N 34°41' E 135°11'0 0.0
2017-Aug-13 14:00N 34°41' E 135°11'0 0.0
2017-Aug-13 13:30N 34°41' E 135°11'0 0.0
2017-Aug-13 13:00N 34°41' E 135°11'0 0.0
2017-Aug-13 12:30N 34°41' E 135°11'0 0.0
2017-Aug-13 12:00N 34°41' E 135°11'0 0.0
2017-Aug-13 11:26N 34°41' E 135°11'1 2.3
2017-Aug-13 11:00N 34°40' E 135°11'2 4.3
2017-Aug-13 10:31N 34°38' E 135°11'3 5.1
2017-Aug-13 10:01N 34°37' E 135°08'2 3.1
2017-Aug-13 09:30N 34°37' E 135°09'2 3.5
2017-Aug-13 09:00N 34°39' E 135°11'2 4.2
2017-Aug-13 08:27N 34°41' E 135°11'0 0.0
2017-Aug-13 07:57N 34°41' E 135°11'0 0.0
2017-Aug-13 07:27N 34°41' E 135°11'0 0.0
2017-Aug-13 06:57N 34°41' E 135°11'0 0.0
2017-Aug-13 06:30N 34°41' E 135°11'1 2.4
2017-Aug-13 06:00N 34°40' E 135°11'2 4.0
2017-Aug-13 05:30N 34°38' E 135°11'2 3.0
2017-Aug-13 05:00N 34°39' E 135°11'2 2.4
2017-Aug-13 04:21N 34°41' E 135°11'0 0.0
2017-Aug-13 03:57N 34°41' E 135°11'0 0.0
2017-Aug-13 03:27N 34°41' E 135°11'0 0.0
2017-Aug-13 02:51N 34°41' E 135°11'0 0.0
2017-Aug-13 02:30N 34°41' E 135°11'1 2.0
2017-Aug-13 02:00N 34°40' E 135°11'2 4.1
2017-Aug-13 01:30N 34°38' E 135°11'2 3.8
2017-Aug-13 01:00N 34°40' E 135°11'1 2.0
2017-Aug-13 00:27N 34°41' E 135°11'0 0.0
2017-Aug-12 23:57N 34°41' E 135°11'0 0.0
2017-Aug-12 23:01N 34°41' E 135°11'0 0.0
2017-Aug-12 22:49N 34°41' E 135°11'  

Dump ship's entire track history